createdAt,value
2022-11-27T00:01:22.609Z,100.00
2022-11-27T00:03:49.367Z,100.00
2022-11-27T00:06:19.381Z,100.00
2022-11-27T00:08:46.485Z,100.00
2022-11-27T00:11:15.893Z,100.00
2022-11-27T00:13:42.488Z,100.00
2022-11-27T00:16:09.470Z,100.00
2022-11-27T00:18:36.690Z,100.00
2022-11-27T00:21:12.791Z,100.00
2022-11-27T00:23:39.649Z,100.00
2022-11-27T00:26:07.050Z,100.00
2022-11-27T00:28:35.212Z,100.00
2022-11-27T00:31:07.479Z,100.00
2022-11-27T00:33:34.464Z,100.00
2022-11-27T00:36:05.788Z,100.00
2022-11-27T00:38:37.383Z,100.00
2022-11-27T00:41:06.814Z,100.00
2022-11-27T00:43:43.655Z,100.00
2022-11-27T00:46:13.438Z,100.00
2022-11-27T00:48:40.542Z,100.00
2022-11-27T00:51:09.543Z,100.00
2022-11-27T00:53:36.200Z,100.00
2022-11-27T00:56:03.737Z,100.00
2022-11-27T00:58:30.672Z,100.00
2022-11-27T01:00:59.656Z,100.00
2022-11-27T01:03:27.037Z,100.00
2022-11-27T01:05:53.952Z,100.00
2022-11-27T01:08:21.157Z,100.00
2022-11-27T01:10:56.614Z,100.00
2022-11-27T01:13:24.816Z,100.00
2022-11-27T01:16:07.226Z,100.00
2022-11-27T01:18:35.971Z,100.00
2022-11-27T01:21:04.510Z,100.00
2022-11-27T01:23:31.461Z,100.00
2022-11-27T01:26:00.951Z,100.00
2022-11-27T01:28:28.700Z,100.00
2022-11-27T01:30:55.290Z,100.00
2022-11-27T01:33:21.828Z,100.00
2022-11-27T01:35:58.552Z,100.00
2022-11-27T01:38:26.038Z,100.00
2022-11-27T01:41:00.751Z,100.00
2022-11-27T01:43:49.079Z,100.00
2022-11-27T01:46:30.520Z,100.00
2022-11-27T01:49:18.524Z,100.00
2022-11-27T01:51:47.399Z,100.00
2022-11-27T01:54:16.049Z,100.00
2022-11-27T01:56:45.924Z,100.00
2022-11-27T01:59:12.693Z,100.00
2022-11-27T02:01:39.252Z,100.00
2022-11-27T02:04:06.190Z,100.00
2022-11-27T02:06:32.754Z,100.00
2022-11-27T02:08:59.228Z,100.00
2022-11-27T02:11:53.705Z,100.00
2022-11-27T02:14:43.577Z,100.00
2022-11-27T02:17:19.948Z,100.00
2022-11-27T02:20:17.472Z,100.00
2022-11-27T02:22:57.879Z,100.00
2022-11-27T02:25:43.040Z,100.00
2022-11-27T02:28:25.158Z,100.00
2022-11-27T02:31:06.206Z,100.00
2022-11-27T02:33:39.591Z,100.00
2022-11-27T02:36:11.881Z,100.00
2022-11-27T02:38:44.589Z,100.00
2022-11-27T02:41:41.635Z,100.00
2022-11-27T02:44:10.538Z,100.00
2022-11-27T02:46:38.936Z,100.00
2022-11-27T02:49:10.971Z,100.00
2022-11-27T02:51:46.400Z,100.00
2022-11-27T02:54:19.599Z,100.00
2022-11-27T02:56:49.421Z,100.00
2022-11-27T02:59:18.987Z,100.00
2022-11-27T03:01:53.155Z,100.00
2022-11-27T03:04:26.970Z,100.00
2022-11-27T03:06:57.995Z,100.00
2022-11-27T03:09:31.972Z,100.00
2022-11-27T03:11:59.159Z,100.00
2022-11-27T03:14:26.701Z,100.00
2022-11-27T03:17:11.588Z,100.00
2022-11-27T03:19:45.666Z,100.00
2022-11-27T03:22:12.473Z,100.00
2022-11-27T03:24:39.730Z,100.00
2022-11-27T03:27:07.155Z,100.00
2022-11-27T03:29:38.426Z,100.00
2022-11-27T03:32:05.683Z,100.00
2022-11-27T03:34:33.008Z,100.00
2022-11-27T03:37:00.566Z,100.00
2022-11-27T03:39:28.249Z,100.00
2022-11-27T03:42:09.790Z,100.00
2022-11-27T03:44:42.117Z,100.00
2022-11-27T03:47:33.425Z,100.00
2022-11-27T03:50:12.955Z,100.00
2022-11-27T03:52:45.219Z,100.00
2022-11-27T03:55:35.172Z,100.00
2022-11-27T03:58:11.715Z,100.00
2022-11-27T04:00:42.012Z,100.00
2022-11-27T04:03:12.869Z,100.00
2022-11-27T04:05:39.917Z,100.00
2022-11-27T04:08:06.555Z,100.00
2022-11-27T04:10:33.159Z,100.00
2022-11-27T04:12:59.673Z,100.00
2022-11-27T04:15:26.115Z,100.00
2022-11-27T04:17:52.594Z,100.00
2022-11-27T04:20:19.079Z,100.00
2022-11-27T04:22:45.578Z,100.00
2022-11-27T04:25:12.021Z,100.00
2022-11-27T04:27:38.544Z,100.00
2022-11-27T04:30:05.593Z,100.00
2022-11-27T04:32:32.074Z,100.00
2022-11-27T04:34:58.591Z,100.00
2022-11-27T04:37:25.047Z,100.00
2022-11-27T04:39:51.532Z,100.00
2022-11-27T04:42:18.027Z,100.00
2022-11-27T04:44:44.477Z,100.00
2022-11-27T04:47:10.971Z,100.00
2022-11-27T04:49:37.520Z,100.00
2022-11-27T04:52:04.468Z,100.00
2022-11-27T04:54:30.911Z,100.00
2022-11-27T04:56:57.370Z,100.00
2022-11-27T04:59:23.854Z,100.00
2022-11-27T05:01:50.531Z,100.00
2022-11-27T05:04:17.079Z,100.00
2022-11-27T05:06:43.680Z,100.00
2022-11-27T05:09:10.116Z,100.00
2022-11-27T05:11:36.776Z,100.00
2022-11-27T05:14:16.755Z,100.00
2022-11-27T05:16:51.614Z,100.00
2022-11-27T05:19:20.174Z,100.00
2022-11-27T05:21:47.821Z,100.00
2022-11-27T05:24:16.100Z,100.00
2022-11-27T05:26:43.991Z,100.00
2022-11-27T05:29:11.048Z,100.00
2022-11-27T05:31:38.323Z,100.00
2022-11-27T05:34:05.165Z,100.00
2022-11-27T05:36:33.459Z,100.00
2022-11-27T05:39:02.857Z,99.84
2022-11-27T05:41:30.009Z,100.00
2022-11-27T05:43:56.467Z,100.00
2022-11-27T05:46:23.533Z,100.00
2022-11-27T05:48:50.413Z,100.00
2022-11-27T05:51:17.857Z,100.00
2022-11-27T05:53:44.703Z,100.00
2022-11-27T05:56:14.146Z,100.00
2022-11-27T05:58:42.109Z,100.00
2022-11-27T06:01:09.547Z,99.94
2022-11-27T06:03:38.996Z,99.55
2022-11-27T06:06:08.106Z,99.79
2022-11-27T06:08:37.133Z,100.00
2022-11-27T06:11:08.704Z,100.00
2022-11-27T06:13:35.708Z,100.00
2022-11-27T06:16:12.147Z,100.00
2022-11-27T06:18:39.238Z,100.00
2022-11-27T06:21:08.447Z,99.61
2022-11-27T06:23:35.895Z,99.79
2022-11-27T06:26:15.585Z,99.81
2022-11-27T06:28:42.279Z,99.69
2022-11-27T06:31:18.062Z,99.54
2022-11-27T06:33:45.877Z,99.68
2022-11-27T06:36:12.333Z,99.69
2022-11-27T06:38:39.138Z,99.58
2022-11-27T06:41:14.364Z,99.52
2022-11-27T06:43:41.197Z,99.72
2022-11-27T06:46:12.221Z,99.54
2022-11-27T06:48:38.688Z,99.12
2022-11-27T06:51:07.746Z,99.25
2022-11-27T06:53:36.721Z,99.14
2022-11-27T06:56:08.928Z,99.30
2022-11-27T06:58:36.890Z,99.53
2022-11-27T07:01:09.841Z,99.52
2022-11-27T07:03:36.752Z,99.43
2022-11-27T07:06:05.229Z,99.11
2022-11-27T07:08:32.376Z,98.79
2022-11-27T07:11:04.130Z,98.99
2022-11-27T07:13:31.344Z,98.38
2022-11-27T07:16:02.340Z,98.57
2022-11-27T07:18:30.433Z,98.48
2022-11-27T07:20:57.066Z,99.04
2022-11-27T07:23:23.500Z,99.02
2022-11-27T07:25:49.997Z,98.99
2022-11-27T07:28:19.061Z,98.85
2022-11-27T07:30:46.227Z,99.27
2022-11-27T07:33:12.659Z,99.10
2022-11-27T07:35:39.161Z,98.37
2022-11-27T07:38:05.750Z,98.41
2022-11-27T07:40:32.216Z,98.59
2022-11-27T07:42:58.964Z,98.91
2022-11-27T07:45:25.515Z,99.39
2022-11-27T07:47:52.013Z,98.97
2022-11-27T07:50:18.723Z,99.34
2022-11-27T07:52:45.295Z,99.34
2022-11-27T07:55:11.841Z,99.34
2022-11-27T07:57:38.707Z,98.94
2022-11-27T08:00:06.796Z,99.38
2022-11-27T08:02:33.931Z,99.25
2022-11-27T08:05:00.513Z,99.50
2022-11-27T08:07:30.699Z,99.43
2022-11-27T08:10:00.051Z,99.33
2022-11-27T08:12:27.426Z,99.60
2022-11-27T08:14:53.880Z,99.28
2022-11-27T08:17:20.424Z,99.16
2022-11-27T08:19:46.944Z,99.09
2022-11-27T08:22:15.744Z,98.65
2022-11-27T08:24:42.887Z,98.50
2022-11-27T08:27:10.418Z,98.28
2022-11-27T08:29:40.053Z,98.27
2022-11-27T08:32:06.941Z,98.12
2022-11-27T08:34:33.748Z,98.22
2022-11-27T08:37:00.253Z,97.88
2022-11-27T08:39:27.382Z,97.23
2022-11-27T08:41:54.346Z,97.09
2022-11-27T08:44:20.947Z,96.66
2022-11-27T08:46:47.506Z,95.80
2022-11-27T08:49:14.172Z,95.53
2022-11-27T08:51:40.693Z,94.87
2022-11-27T08:54:07.677Z,95.33
2022-11-27T08:56:34.485Z,94.79
2022-11-27T08:59:01.020Z,94.54
2022-11-27T09:01:30.422Z,93.80
2022-11-27T09:03:57.162Z,93.87
2022-11-27T09:06:25.872Z,94.21
2022-11-27T09:08:52.406Z,94.28
2022-11-27T09:11:20.302Z,93.72
2022-11-27T09:13:47.248Z,93.91
2022-11-27T09:16:16.752Z,93.95
2022-11-27T09:18:47.500Z,93.64
2022-11-27T09:21:16.206Z,93.82
2022-11-27T09:23:43.177Z,93.15
2022-11-27T09:26:12.587Z,93.22
2022-11-27T09:28:40.707Z,93.65
2022-11-27T09:31:10.081Z,93.28
2022-11-27T09:33:38.507Z,92.95
2022-11-27T09:36:10.312Z,92.82
2022-11-27T09:38:37.621Z,92.15
2022-11-27T09:41:35.692Z,91.81
2022-11-27T09:44:11.415Z,90.88
2022-11-27T09:46:41.188Z,89.95
2022-11-27T09:49:22.400Z,88.20
2022-11-27T09:51:54.915Z,88.56
2022-11-27T09:54:27.663Z,88.09
2022-11-27T09:56:55.914Z,87.67
2022-11-27T09:59:28.877Z,87.64
2022-11-27T10:01:55.553Z,87.79
2022-11-27T10:04:22.266Z,87.24
2022-11-27T10:07:07.485Z,87.45
2022-11-27T10:09:52.701Z,87.49
2022-11-27T10:12:26.442Z,87.53
2022-11-27T10:15:04.333Z,87.63
2022-11-27T10:17:39.263Z,87.46
2022-11-27T10:20:32.157Z,86.35
2022-11-27T10:23:36.232Z,86.41
2022-11-27T10:26:10.955Z,87.11
2022-11-27T10:28:46.130Z,86.93
2022-11-27T10:31:15.991Z,86.81
2022-11-27T10:33:49.852Z,86.81
2022-11-27T10:36:29.944Z,87.33
2022-11-27T10:39:00.082Z,87.18
2022-11-27T10:41:50.459Z,87.66
2022-11-27T10:44:30.080Z,87.56
2022-11-27T10:47:03.043Z,87.28
2022-11-27T10:49:30.212Z,87.04
2022-11-27T10:51:56.857Z,87.04
2022-11-27T10:54:27.628Z,87.02
2022-11-27T10:57:12.135Z,87.32
2022-11-27T11:00:08.032Z,86.72
2022-11-27T11:02:40.594Z,86.55
2022-11-27T11:05:40.982Z,86.55
2022-11-27T11:08:19.400Z,85.65
2022-11-27T11:10:53.985Z,85.17
2022-11-27T11:13:29.393Z,85.11
2022-11-27T11:16:09.715Z,85.54
2022-11-27T11:18:46.364Z,84.05
2022-11-27T11:21:17.050Z,83.54
2022-11-27T11:23:46.345Z,83.74
2022-11-27T11:26:25.729Z,83.86
2022-11-27T11:28:55.000Z,84.08
2022-11-27T11:31:27.905Z,84.06
2022-11-27T11:34:22.487Z,82.63
2022-11-27T11:37:08.605Z,81.47
2022-11-27T11:39:45.854Z,81.46
2022-11-27T11:42:21.505Z,82.27
2022-11-27T11:44:53.843Z,82.59
2022-11-27T11:47:26.573Z,82.48
2022-11-27T11:49:56.013Z,81.67
2022-11-27T11:52:47.273Z,81.56
2022-11-27T11:55:20.228Z,81.59
2022-11-27T11:58:28.111Z,81.50
2022-11-27T12:01:26.058Z,80.16
2022-11-27T12:04:31.354Z,80.09
2022-11-27T12:07:20.944Z,79.91
2022-11-27T12:09:57.175Z,80.21
2022-11-27T12:12:42.188Z,80.31
2022-11-27T12:15:28.876Z,80.29
2022-11-27T12:18:09.744Z,79.75
2022-11-27T12:20:48.019Z,79.24
2022-11-27T12:23:55.555Z,78.52
2022-11-27T12:27:07.168Z,78.43
2022-11-27T12:29:45.690Z,78.48
2022-11-27T12:32:27.786Z,77.69
2022-11-27T12:35:21.434Z,77.36
2022-11-27T12:38:25.391Z,76.72
2022-11-27T12:41:33.866Z,76.73
2022-11-27T12:44:00.779Z,76.38
2022-11-27T12:46:43.417Z,76.63
2022-11-27T12:49:25.733Z,76.43
2022-11-27T12:52:03.118Z,76.42
2022-11-27T12:54:37.077Z,76.46
2022-11-27T12:57:14.508Z,75.91
2022-11-27T13:00:05.605Z,75.36
2022-11-27T13:02:41.377Z,75.79
2022-11-27T13:05:22.593Z,75.27
2022-11-27T13:08:02.371Z,74.96
2022-11-27T13:11:03.935Z,74.19
2022-11-27T13:13:43.171Z,74.60
2022-11-27T13:16:27.443Z,74.22
2022-11-27T13:19:18.940Z,74.15
2022-11-27T13:21:47.548Z,72.86
2022-11-27T13:24:14.708Z,72.83
2022-11-27T13:27:18.324Z,73.25
2022-11-27T13:29:55.108Z,72.32
2022-11-27T13:32:23.581Z,71.60
2022-11-27T13:34:51.885Z,70.44
2022-11-27T13:37:30.775Z,70.55
2022-11-27T13:40:05.598Z,70.73
2022-11-27T13:42:36.162Z,70.91
2022-11-27T13:45:11.219Z,70.86
2022-11-27T13:47:43.354Z,71.32
2022-11-27T13:50:13.843Z,71.04
2022-11-27T13:53:05.831Z,71.07
2022-11-27T13:55:38.738Z,70.88
2022-11-27T13:58:07.142Z,71.07
2022-11-27T14:00:38.182Z,71.01
2022-11-27T14:03:06.804Z,71.42
2022-11-27T14:05:42.580Z,70.29
2022-11-27T14:08:20.519Z,69.75
2022-11-27T14:10:51.365Z,69.94
2022-11-27T14:13:21.425Z,70.51
2022-11-27T14:16:02.190Z,70.89
2022-11-27T14:18:30.589Z,70.88
2022-11-27T14:21:03.067Z,71.22
2022-11-27T14:23:34.142Z,70.87
2022-11-27T14:26:05.232Z,71.15
2022-11-27T14:28:36.340Z,71.36
2022-11-27T14:31:03.592Z,71.90
2022-11-27T14:33:47.569Z,71.85
2022-11-27T14:36:26.073Z,70.86
2022-11-27T14:38:53.208Z,71.14
2022-11-27T14:41:25.462Z,71.31
2022-11-27T14:44:05.937Z,70.90
2022-11-27T14:46:35.400Z,70.33
2022-11-27T14:49:02.508Z,70.81
2022-11-27T14:51:32.875Z,70.32
2022-11-27T14:54:02.128Z,69.68
2022-11-27T14:56:32.376Z,69.76
2022-11-27T14:59:00.138Z,69.23
2022-11-27T15:01:32.767Z,68.53
2022-11-27T15:04:01.951Z,69.11
2022-11-27T15:06:35.066Z,69.30
2022-11-27T15:09:30.893Z,69.26
2022-11-27T15:11:56.910Z,68.45
2022-11-27T15:14:28.693Z,68.39
2022-11-27T15:16:55.551Z,69.52
2022-11-27T15:19:35.374Z,71.17
2022-11-27T15:22:02.693Z,73.17
2022-11-27T15:24:31.260Z,73.83
2022-11-27T15:27:15.856Z,74.14
2022-11-27T15:29:59.967Z,75.09
2022-11-27T15:32:45.699Z,74.88
2022-11-27T15:35:14.485Z,74.53
2022-11-27T15:37:41.258Z,75.51
2022-11-27T15:40:24.064Z,75.94
2022-11-27T15:42:50.516Z,76.58
2022-11-27T15:45:17.515Z,76.42
2022-11-27T15:47:44.511Z,76.00
2022-11-27T15:50:16.045Z,76.31
2022-11-27T15:52:42.741Z,75.81
2022-11-27T15:55:15.855Z,75.04
2022-11-27T15:57:43.132Z,73.93
2022-11-27T16:00:10.715Z,74.51
2022-11-27T16:02:40.457Z,73.76
2022-11-27T16:05:08.208Z,73.91
2022-11-27T16:07:35.274Z,73.68
2022-11-27T16:10:02.289Z,73.50
2022-11-27T16:12:28.770Z,74.06
2022-11-27T16:14:55.271Z,73.76
2022-11-27T16:17:21.749Z,74.00
2022-11-27T16:19:48.271Z,74.34
2022-11-27T16:22:14.821Z,74.27
2022-11-27T16:24:41.864Z,74.73
2022-11-27T16:27:08.524Z,74.58
2022-11-27T16:29:35.548Z,75.47
2022-11-27T16:32:02.692Z,75.01
2022-11-27T16:34:29.320Z,74.19
2022-11-27T16:36:55.773Z,74.06
2022-11-27T16:39:23.938Z,74.56
2022-11-27T16:41:50.932Z,75.25
2022-11-27T16:44:19.095Z,75.83
2022-11-27T16:46:45.955Z,75.06
2022-11-27T16:49:13.281Z,74.12
2022-11-27T16:51:41.407Z,74.42
2022-11-27T16:54:12.234Z,74.19
2022-11-27T16:56:41.338Z,74.69
2022-11-27T16:59:13.200Z,74.35
2022-11-27T17:01:41.658Z,74.31
2022-11-27T17:04:14.234Z,74.26
2022-11-27T17:06:40.776Z,73.98
2022-11-27T17:09:08.531Z,74.22
2022-11-27T17:11:37.285Z,74.38
2022-11-27T17:14:07.433Z,74.38
2022-11-27T17:16:36.372Z,75.10
2022-11-27T17:19:03.874Z,75.37
2022-11-27T17:21:33.680Z,76.05
2022-11-27T17:24:02.986Z,75.17
2022-11-27T17:26:35.611Z,74.20
2022-11-27T17:29:03.540Z,74.40
2022-11-27T17:31:37.028Z,73.82
2022-11-27T17:34:06.089Z,73.67
2022-11-27T17:36:37.321Z,73.64
2022-11-27T17:39:06.412Z,73.91
2022-11-27T17:41:33.798Z,74.96
2022-11-27T17:44:00.609Z,75.04
2022-11-27T17:46:28.922Z,75.50
2022-11-27T17:48:58.977Z,75.98
2022-11-27T17:51:26.356Z,76.27
2022-11-27T17:53:52.921Z,76.04
2022-11-27T17:56:20.899Z,76.46
2022-11-27T17:58:49.082Z,74.64
2022-11-27T18:01:22.008Z,74.90
2022-11-27T18:03:50.750Z,73.94
2022-11-27T18:06:19.643Z,74.11
2022-11-27T18:08:47.403Z,73.45
2022-11-27T18:11:21.149Z,74.02
2022-11-27T18:13:49.118Z,73.99
2022-11-27T18:16:28.905Z,73.88
2022-11-27T18:18:56.736Z,74.18
2022-11-27T18:21:24.414Z,73.31
2022-11-27T18:24:22.144Z,73.17
2022-11-27T18:27:06.572Z,72.65
2022-11-27T18:29:27.548Z,73.02
2022-11-27T18:31:54.126Z,72.60
2022-11-27T18:34:20.746Z,70.23
2022-11-27T18:36:47.218Z,67.91
2022-11-27T18:39:13.716Z,68.16
2022-11-27T18:41:40.735Z,68.58
2022-11-27T18:44:08.193Z,67.64
2022-11-27T18:46:35.135Z,68.15
2022-11-27T18:49:02.323Z,67.75
2022-11-27T18:51:29.022Z,66.34
2022-11-27T18:53:57.211Z,65.55
2022-11-27T18:56:30.351Z,64.99
2022-11-27T18:59:03.372Z,65.85
2022-11-27T19:01:36.727Z,66.53
2022-11-27T19:04:07.223Z,66.53
2022-11-27T19:06:35.826Z,65.66
2022-11-27T19:09:02.398Z,65.66
2022-11-27T19:11:30.806Z,65.94
2022-11-27T19:13:57.800Z,66.49
2022-11-27T19:16:27.352Z,66.30
2022-11-27T19:18:57.185Z,66.32
2022-11-27T19:21:26.042Z,66.20
2022-11-27T19:23:56.429Z,65.93
2022-11-27T19:26:26.093Z,67.16
2022-11-27T19:28:58.804Z,67.65
2022-11-27T19:31:26.216Z,67.83
2022-11-27T19:34:01.318Z,68.26
2022-11-27T19:36:30.210Z,68.35
2022-11-27T19:38:59.860Z,68.73
2022-11-27T19:41:26.871Z,68.71
2022-11-27T19:44:04.878Z,67.68
2022-11-27T19:46:35.046Z,67.68
2022-11-27T19:49:09.134Z,67.94
2022-11-27T19:51:37.530Z,68.66
2022-11-27T19:54:10.001Z,68.47
2022-11-27T19:56:39.850Z,68.27
2022-11-27T19:59:07.133Z,68.39
2022-11-27T20:01:34.103Z,68.04
2022-11-27T20:04:02.040Z,68.62
2022-11-27T20:06:28.582Z,69.14
2022-11-27T20:09:00.788Z,69.90
2022-11-27T20:11:34.281Z,70.52
2022-11-27T20:14:05.011Z,70.52
2022-11-27T20:16:34.287Z,71.26
2022-11-27T20:19:02.775Z,71.00
2022-11-27T20:21:29.287Z,70.14
2022-11-27T20:23:57.568Z,70.57
2022-11-27T20:26:26.351Z,70.82
2022-11-27T20:28:54.130Z,70.94
2022-11-27T20:31:43.647Z,70.54
2022-11-27T20:34:18.137Z,70.42
2022-11-27T20:36:44.719Z,70.51
2022-11-27T20:39:19.273Z,70.10
2022-11-27T20:41:47.321Z,70.39
2022-11-27T20:44:13.843Z,68.68
2022-11-27T20:46:40.359Z,68.29
2022-11-27T20:49:07.151Z,68.65
2022-11-27T20:51:34.253Z,68.94
2022-11-27T20:54:09.294Z,68.94
2022-11-27T20:56:36.250Z,69.14
2022-11-27T20:59:05.171Z,68.53
2022-11-27T21:01:34.210Z,68.93
2022-11-27T21:04:04.386Z,69.14
2022-11-27T21:06:32.714Z,69.11
2022-11-27T21:09:03.428Z,68.94
2022-11-27T21:11:32.063Z,69.15
2022-11-27T21:14:05.961Z,68.28
2022-11-27T21:16:35.367Z,68.14
2022-11-27T21:19:05.639Z,67.92
2022-11-27T21:21:32.749Z,68.33
2022-11-27T21:24:00.179Z,68.06
2022-11-27T21:26:28.543Z,68.22
2022-11-27T21:28:56.173Z,68.42
2022-11-27T21:31:25.424Z,68.46
2022-11-27T21:33:54.545Z,68.45
2022-11-27T21:36:25.650Z,68.42
2022-11-27T21:38:52.737Z,67.48
2022-11-27T21:41:20.606Z,67.89
2022-11-27T21:43:48.817Z,68.49
2022-11-27T21:46:20.386Z,68.53
2022-11-27T21:48:48.461Z,69.57
2022-11-27T21:51:15.893Z,70.83
2022-11-27T21:53:44.099Z,70.66
2022-11-27T21:56:13.377Z,71.22
2022-11-27T21:58:40.489Z,71.51
2022-11-27T22:01:12.766Z,72.85
2022-11-27T22:03:42.480Z,72.75
2022-11-27T22:06:15.046Z,72.24
2022-11-27T22:08:44.029Z,72.59
2022-11-27T22:11:13.664Z,72.95
2022-11-27T22:13:41.560Z,73.02
2022-11-27T22:16:13.267Z,73.89
2022-11-27T22:18:40.525Z,74.20
2022-11-27T22:21:10.423Z,75.27
2022-11-27T22:23:38.091Z,75.29
2022-11-27T22:26:07.456Z,76.28
2022-11-27T22:28:35.948Z,76.62
2022-11-27T22:31:21.690Z,77.19
2022-11-27T22:33:48.975Z,77.74
2022-11-27T22:36:17.196Z,78.13
2022-11-27T22:38:45.490Z,78.24
2022-11-27T22:41:13.598Z,78.91
2022-11-27T22:43:40.784Z,80.06
2022-11-27T22:46:17.203Z,80.63
2022-11-27T22:48:44.537Z,81.12
2022-11-27T22:51:11.577Z,81.78
2022-11-27T22:53:38.533Z,82.49
2022-11-27T22:56:09.513Z,82.50
2022-11-27T22:58:41.163Z,83.81
2022-11-27T23:01:13.879Z,84.48
2022-11-27T23:03:40.619Z,84.93
2022-11-27T23:06:12.862Z,85.22
2022-11-27T23:08:44.800Z,86.36
2022-11-27T23:11:15.786Z,87.49
2022-11-27T23:13:48.002Z,87.69
2022-11-27T23:16:16.693Z,87.78
2022-11-27T23:18:43.287Z,86.18
2022-11-27T23:21:38.462Z,86.78
2022-11-27T23:24:06.805Z,86.37
2022-11-27T23:26:33.496Z,86.26
2022-11-27T23:29:00.030Z,85.91
2022-11-27T23:31:30.725Z,86.28
2022-11-27T23:33:59.249Z,85.60
2022-11-27T23:36:25.758Z,86.08
2022-11-27T23:38:52.369Z,85.43
2022-11-27T23:41:21.467Z,84.95
2022-11-27T23:43:48.792Z,84.42
2022-11-27T23:46:18.413Z,84.87
2022-11-27T23:48:45.075Z,84.97
2022-11-27T23:51:14.419Z,84.75
2022-11-27T23:53:41.084Z,85.35
2022-11-27T23:56:10.288Z,85.60
2022-11-27T23:58:36.929Z,85.40
